Ryndam — PHFV — position and weather

sailwx.info

Track history (hours):
 
Tides and Currents Weather Stations Pressure Air Temp Water Temp Dewpoint Dewpoint Depression Visibility Wind Speed Wind Dir Waves Ship Positions

Ryndam

Operator: Holland America Line

Last reported at 2015-Oct-31 08:18 UTC. Time now 2017-Dec-12 23:49 UTC.
Position N 01°28' E 103°51'.
Warning: this ship's position is years out of date!

Type: Ship. MMSI: 245026000.

Date/timePositionNaut miles runAvg speedWind from/ knotsBaromVisibWave heightAir tempDewpointWater temp
2015-Oct-31 08:18N 01°28' E 103°51'6 8.0
2015-Oct-31 07:34N 01°25' E 103°56'10 9.7
2015-Oct-31 06:34N 01°20' E 104°05'9 9.3
2015-Oct-31 05:33N 01°15' E 103°57'9 8.9
2015-Oct-31 04:33N 01°16' E 103°48'1 1.1
2015-Oct-31 03:28N 01°16' E 103°49'0 0.0
2015-Oct-31 02:28N 01°16' E 103°49'0 0.0
2015-Oct-31 01:34N 01°16' E 103°49'0 0.0
2015-Oct-31 00:28N 01°16' E 103°49'0 0.0
2015-Oct-30 23:34N 01°16' E 103°49'0 0.4
2015-Oct-30 22:33N 01°16' E 103°49'6 6.0
2015-Oct-30 21:33N 01°10' E 103°48'1211.3
2015-Oct-30 20:30N 01°03' E 103°39'13018.7
2015-Oct-30 13:34N 02°13' E 101°50'2120.9
2015-Oct-30 12:34N 02°26' E 101°33'2020.0
2015-Oct-30 11:32N 02°38' E 101°16'1515.0
2015-Oct-30 10:33N 02°52' E 101°16'8 2.4
2015-Oct-30 07:09N 02°59' E 101°20'0 0.0
2015-Oct-30 05:33N 02°59' E 101°20'0 0.0
2015-Oct-30 04:33N 02°59' E 101°20'0 0.0
2015-Oct-30 03:33N 02°59' E 101°20'0 0.0
2015-Oct-30 00:30N 02°59' E 101°20'1 1.6
2015-Oct-29 23:33N 03°00' E 101°21'1313.0
2015-Oct-29 22:33N 03°11' E 101°14'1312.4
2015-Oct-29 21:30N 03°20' E 101°04'1312.3
2015-Oct-29 20:28N 03°27' E 100°53'1211.7
2015-Oct-29 19:27N 03°36' E 100°46'1112.6
2015-Oct-29 18:34N 03°44' E 100°38'9015.0
2015-Oct-29 12:33N 05°08' E 100°05'1515.4
2015-Oct-29 11:33N 05°24' E 100°03'1413.6
2015-Oct-29 10:32N 05°36' E 100°10'1313.0
2015-Oct-29 09:32N 05°28' E 100°21'3 2.7
2015-Oct-29 08:32N 05°25' E 100°21'0 0.0
2015-Oct-29 07:32N 05°25' E 100°21'0 0.0
2015-Oct-29 06:26N 05°25' E 100°21'0 0.0
2015-Oct-29 05:32N 05°25' E 100°21'0 0.0
2015-Oct-29 04:32N 05°25' E 100°21'0 0.0
2015-Oct-29 03:32N 05°25' E 100°21'0 0.0
2015-Oct-29 02:32N 05°25' E 100°21'0 0.0
2015-Oct-29 01:32N 05°25' E 100°21'0 0.0
2015-Oct-29 00:32N 05°25' E 100°21'0 0.0
2015-Oct-28 23:32N 05°25' E 100°21'0 0.2
2015-Oct-28 22:32N 05°25' E 100°21'10 9.8
2015-Oct-28 21:32N 05°34' E 100°15'1312.9
2015-Oct-28 20:33N 05°37' E 100°03'1615.7
2015-Oct-28 19:33N 05°39' E 099°48'  
2015-Oct-25 18:00N 05°48' E 080°18'335 7.0 320 / 101011.010.8 0.526.623.130.0
2015-Oct-23 18:00N 09°24' E 076°00'134 5.6 230 / 61011.010.8 27.825.330.0
2015-Oct-22 18:00N 11°24' E 075°00'7318.2 230 / 61012.010.8 28.826.330.0
2015-Oct-22 14:00N 12°24' E 074°18'   230 / 131009.0 28.527.130.0
Track history (hours):
 
Tides and Currents Weather Stations Pressure Air Temp Water Temp Dewpoint Dewpoint Depression Visibility Wind Speed Wind Dir Waves Ship Positions

Ryndam

Operator: Holland America Line

Last reported at 2015-Oct-31 08:18 UTC. Time now 2017-Dec-12 23:49 UTC.
Position N 01°28' E 103°51'.
Warning: this ship's position is years out of date!

Type: Ship. MMSI: 245026000.

Date/timePositionNaut miles runAvg speedWind from/ knotsBaromVisibWave heightAir tempDewpointWater temp
2015-Oct-31 08:18N 01°28' E 103°51'6 8.0
2015-Oct-31 07:34N 01°25' E 103°56'10 9.7
2015-Oct-31 06:34N 01°20' E 104°05'9 9.3
2015-Oct-31 05:33N 01°15' E 103°57'9 8.9
2015-Oct-31 04:33N 01°16' E 103°48'1 1.1
2015-Oct-31 03:28N 01°16' E 103°49'0 0.0
2015-Oct-31 02:28N 01°16' E 103°49'0 0.0
2015-Oct-31 01:34N 01°16' E 103°49'0 0.0
2015-Oct-31 00:28N 01°16' E 103°49'0 0.0
2015-Oct-30 23:34N 01°16' E 103°49'0 0.4
2015-Oct-30 22:33N 01°16' E 103°49'6 6.0
2015-Oct-30 21:33N 01°10' E 103°48'1211.3
2015-Oct-30 20:30N 01°03' E 103°39'13018.7
2015-Oct-30 13:34N 02°13' E 101°50'2120.9
2015-Oct-30 12:34N 02°26' E 101°33'2020.0
2015-Oct-30 11:32N 02°38' E 101°16'1515.0
2015-Oct-30 10:33N 02°52' E 101°16'8 2.4
2015-Oct-30 07:09N 02°59' E 101°20'0 0.0
2015-Oct-30 05:33N 02°59' E 101°20'0 0.0
2015-Oct-30 04:33N 02°59' E 101°20'0 0.0
2015-Oct-30 03:33N 02°59' E 101°20'0 0.0
2015-Oct-30 00:30N 02°59' E 101°20'1 1.6
2015-Oct-29 23:33N 03°00' E 101°21'1313.0
2015-Oct-29 22:33N 03°11' E 101°14'1312.4
2015-Oct-29 21:30N 03°20' E 101°04'1312.3
2015-Oct-29 20:28N 03°27' E 100°53'1211.7
2015-Oct-29 19:27N 03°36' E 100°46'1112.6
2015-Oct-29 18:34N 03°44' E 100°38'9015.0
2015-Oct-29 12:33N 05°08' E 100°05'1515.4
2015-Oct-29 11:33N 05°24' E 100°03'1413.6
2015-Oct-29 10:32N 05°36' E 100°10'1313.0
2015-Oct-29 09:32N 05°28' E 100°21'3 2.7
2015-Oct-29 08:32N 05°25' E 100°21'0 0.0
2015-Oct-29 07:32N 05°25' E 100°21'0 0.0
2015-Oct-29 06:26N 05°25' E 100°21'0 0.0
2015-Oct-29 05:32N 05°25' E 100°21'0 0.0
2015-Oct-29 04:32N 05°25' E 100°21'0 0.0
2015-Oct-29 03:32N 05°25' E 100°21'0 0.0
2015-Oct-29 02:32N 05°25' E 100°21'0 0.0
2015-Oct-29 01:32N 05°25' E 100°21'0 0.0
2015-Oct-29 00:32N 05°25' E 100°21'0 0.0
2015-Oct-28 23:32N 05°25' E 100°21'0 0.2
2015-Oct-28 22:32N 05°25' E 100°21'10 9.8
2015-Oct-28 21:32N 05°34' E 100°15'1312.9
2015-Oct-28 20:33N 05°37' E 100°03'1615.7
2015-Oct-28 19:33N 05°39' E 099°48'  
2015-Oct-25 18:00N 05°48' E 080°18'335 7.0 320 / 101011.010.8 0.526.623.130.0
2015-Oct-23 18:00N 09°24' E 076°00'134 5.6 230 / 61011.010.8 27.825.330.0
2015-Oct-22 18:00N 11°24' E 075°00'7318.2 230 / 61012.010.8 28.826.330.0
2015-Oct-22 14:00N 12°24' E 074°18'   230 / 131009.0 28.527.130.0

Dump ship's entire track history